sensor_id;sensor_type;location;lat;lon;timestamp;temperature;humidity
32877;DHT22;19226;51.600;8.034;2023-07-29T00:00:32;20.60;99.90
32877;DHT22;19226;51.600;8.034;2023-07-29T00:03:17;20.60;99.90
32877;DHT22;19226;51.600;8.034;2023-07-29T00:06:01;20.60;99.90
32877;DHT22;19226;51.600;8.034;2023-07-29T00:08:46;20.60;99.90
32877;DHT22;19226;51.600;8.034;2023-07-29T00:11:30;20.60;99.90
32877;DHT22;19226;51.600;8.034;2023-07-29T00:14:18;20.60;99.90
32877;DHT22;19226;51.600;8.034;2023-07-29T00:17:02;20.60;99.90
32877;DHT22;19226;51.600;8.034;2023-07-29T00:19:47;20.60;99.90
32877;DHT22;19226;51.600;8.034;2023-07-29T00:22:31;20.60;99.90
32877;DHT22;19226;51.600;8.034;2023-07-29T00:25:16;20.70;99.90
32877;DHT22;19226;51.600;8.034;2023-07-29T00:28:01;20.60;99.90
32877;DHT22;19226;51.600;8.034;2023-07-29T00:30:45;20.70;99.90
32877;DHT22;19226;51.600;8.034;2023-07-29T00:33:30;20.70;99.90
32877;DHT22;19226;51.600;8.034;2023-07-29T00:36:14;20.70;99.90
32877;DHT22;19226;51.600;8.034;2023-07-29T00:38:59;20.70;99.90
32877;DHT22;19226;51.600;8.034;2023-07-29T00:41:43;20.70;99.90
32877;DHT22;19226;51.600;8.034;2023-07-29T00:44:28;20.60;99.90
32877;DHT22;19226;51.600;8.034;2023-07-29T00:47:14;20.60;99.90
32877;DHT22;19226;51.600;8.034;2023-07-29T00:49:59;20.60;99.90
32877;DHT22;19226;51.600;8.034;2023-07-29T00:52:44;20.60;99.90
32877;DHT22;19226;51.600;8.034;2023-07-29T00:55:29;20.60;99.90
32877;DHT22;19226;51.600;8.034;2023-07-29T00:58:14;20.60;99.90
32877;DHT22;19226;51.600;8.034;2023-07-29T01:00:59;20.60;99.90
32877;DHT22;19226;51.600;8.034;2023-07-29T01:03:44;20.50;99.90
32877;DHT22;19226;51.600;8.034;2023-07-29T01:06:34;20.60;99.90
32877;DHT22;19226;51.600;8.034;2023-07-29T01:16:06;20.70;99.90
32877;DHT22;19226;51.600;8.034;2023-07-29T01:18:54;20.70;99.90
32877;DHT22;19226;51.600;8.034;2023-07-29T01:21:39;20.60;99.90
32877;DHT22;19226;51.600;8.034;2023-07-29T01:24:24;20.70;99.90
32877;DHT22;19226;51.600;8.034;2023-07-29T01:27:08;20.60;99.90
32877;DHT22;19226;51.600;8.034;2023-07-29T01:29:54;20.50;99.90
32877;DHT22;19226;51.600;8.034;2023-07-29T01:33:04;20.50;99.90
32877;DHT22;19226;51.600;8.034;2023-07-29T01:36:02;20.40;99.90
32877;DHT22;19226;51.600;8.034;2023-07-29T01:38:48;20.40;99.90
32877;DHT22;19226;51.600;8.034;2023-07-29T01:41:33;20.40;99.90
32877;DHT22;19226;51.600;8.034;2023-07-29T01:44:19;20.30;99.90
32877;DHT22;19226;51.600;8.034;2023-07-29T01:47:03;20.30;99.90
32877;DHT22;19226;51.600;8.034;2023-07-29T01:49:48;20.30;99.90
32877;DHT22;19226;51.600;8.034;2023-07-29T01:52:32;20.30;99.90
32877;DHT22;19226;51.600;8.034;2023-07-29T01:55:17;20.30;99.90
32877;DHT22;19226;51.600;8.034;2023-07-29T01:58:01;20.20;99.90
32877;DHT22;19226;51.600;8.034;2023-07-29T02:00:47;20.20;99.90
32877;DHT22;19226;51.600;8.034;2023-07-29T02:03:32;20.20;99.90
32877;DHT22;19226;51.600;8.034;2023-07-29T02:06:17;20.20;99.90
32877;DHT22;19226;51.600;8.034;2023-07-29T02:09:01;20.20;99.90
32877;DHT22;19226;51.600;8.034;2023-07-29T02:11:48;20.10;99.90
32877;DHT22;19226;51.600;8.034;2023-07-29T02:14:33;20.10;99.90
32877;DHT22;19226;51.600;8.034;2023-07-29T02:17:18;20.10;99.90
32877;DHT22;19226;51.600;8.034;2023-07-29T02:20:03;20.10;99.90
32877;DHT22;19226;51.600;8.034;2023-07-29T02:22:47;20.10;99.90
32877;DHT22;19226;51.600;8.034;2023-07-29T02:25:35;20.10;99.90
32877;DHT22;19226;51.600;8.034;2023-07-29T02:28:19;20.00;99.90
32877;DHT22;19226;51.600;8.034;2023-07-29T02:31:20;20.00;99.90
32877;DHT22;19226;51.600;8.034;2023-07-29T02:34:05;20.00;99.90
32877;DHT22;19226;51.600;8.034;2023-07-29T02:36:49;20.00;99.90
32877;DHT22;19226;51.600;8.034;2023-07-29T02:39:34;20.00;99.90
32877;DHT22;19226;51.600;8.034;2023-07-29T02:42:18;20.00;99.90
32877;DHT22;19226;51.600;8.034;2023-07-29T02:45:03;20.00;99.90
32877;DHT22;19226;51.600;8.034;2023-07-29T02:47:48;20.00;99.90
32877;DHT22;19226;51.600;8.034;2023-07-29T02:50:34;20.00;99.90
32877;DHT22;19226;51.600;8.034;2023-07-29T02:53:18;20.00;99.90
32877;DHT22;19226;51.600;8.034;2023-07-29T02:56:04;20.00;99.90
32877;DHT22;19226;51.600;8.034;2023-07-29T02:58:48;20.10;99.90
32877;DHT22;19226;51.600;8.034;2023-07-29T03:01:35;20.10;99.90
32877;DHT22;19226;51.600;8.034;2023-07-29T03:04:20;20.10;99.90
32877;DHT22;19226;51.600;8.034;2023-07-29T03:07:04;20.10;99.90
32877;DHT22;19226;51.600;8.034;2023-07-29T03:09:49;20.00;99.90
32877;DHT22;19226;51.600;8.034;2023-07-29T03:12:33;20.00;99.90
32877;DHT22;19226;51.600;8.034;2023-07-29T03:15:18;20.00;99.90
32877;DHT22;19226;51.600;8.034;2023-07-29T03:18:02;20.00;99.90
32877;DHT22;19226;51.600;8.034;2023-07-29T03:20:49;20.00;99.90
32877;DHT22;19226;51.600;8.034;2023-07-29T03:23:34;20.00;99.90
32877;DHT22;19226;51.600;8.034;2023-07-29T03:26:18;20.00;99.90
32877;DHT22;19226;51.600;8.034;2023-07-29T03:29:03;20.00;99.90
32877;DHT22;19226;51.600;8.034;2023-07-29T03:31:47;19.90;99.90
32877;DHT22;19226;51.600;8.034;2023-07-29T03:34:32;19.90;99.90
32877;DHT22;19226;51.600;8.034;2023-07-29T03:37:16;19.90;99.90
32877;DHT22;19226;51.600;8.034;2023-07-29T03:40:01;19.90;99.90
32877;DHT22;19226;51.600;8.034;2023-07-29T03:42:45;19.90;99.90
32877;DHT22;19226;51.600;8.034;2023-07-29T03:45:30;19.90;99.90
32877;DHT22;19226;51.600;8.034;2023-07-29T03:48:16;19.90;99.90
32877;DHT22;19226;51.600;8.034;2023-07-29T03:51:00;20.00;99.90
32877;DHT22;19226;51.600;8.034;2023-07-29T03:53:45;20.00;99.90
32877;DHT22;19226;51.600;8.034;2023-07-29T03:56:29;20.00;99.90
32877;DHT22;19226;51.600;8.034;2023-07-29T03:59:14;20.00;99.90
32877;DHT22;19226;51.600;8.034;2023-07-29T04:01:59;20.00;99.90
32877;DHT22;19226;51.600;8.034;2023-07-29T04:04:43;20.10;99.90
32877;DHT22;19226;51.600;8.034;2023-07-29T04:07:32;20.20;99.90
32877;DHT22;19226;51.600;8.034;2023-07-29T04:10:17;20.10;99.90
32877;DHT22;19226;51.600;8.034;2023-07-29T04:13:02;20.20;99.90
32877;DHT22;19226;51.600;8.034;2023-07-29T04:15:46;20.20;99.90
32877;DHT22;19226;51.600;8.034;2023-07-29T04:18:30;20.20;99.90
32877;DHT22;19226;51.600;8.034;2023-07-29T04:21:16;20.20;99.90
32877;DHT22;19226;51.600;8.034;2023-07-29T04:24:00;20.10;99.90
32877;DHT22;19226;51.600;8.034;2023-07-29T04:26:45;20.10;99.90
32877;DHT22;19226;51.600;8.034;2023-07-29T04:29:30;20.20;99.90
32877;DHT22;19226;51.600;8.034;2023-07-29T04:32:15;20.20;99.90
32877;DHT22;19226;51.600;8.034;2023-07-29T04:35:00;20.20;99.90
32877;DHT22;19226;51.600;8.034;2023-07-29T04:37:45;20.20;99.90
32877;DHT22;19226;51.600;8.034;2023-07-29T04:40:35;20.10;99.90
32877;DHT22;19226;51.600;8.034;2023-07-29T04:43:20;20.10;99.90
32877;DHT22;19226;51.600;8.034;2023-07-29T04:46:08;20.10;99.90
32877;DHT22;19226;51.600;8.034;2023-07-29T04:48:55;20.10;99.90
32877;DHT22;19226;51.600;8.034;2023-07-29T04:51:40;20.10;99.90
32877;DHT22;19226;51.600;8.034;2023-07-29T04:54:24;20.10;99.90
32877;DHT22;19226;51.600;8.034;2023-07-29T04:57:09;20.10;99.90
32877;DHT22;19226;51.600;8.034;2023-07-29T04:59:54;20.10;99.90
32877;DHT22;19226;51.600;8.034;2023-07-29T05:02:38;20.10;99.90
32877;DHT22;19226;51.600;8.034;2023-07-29T05:05:23;20.10;99.90
32877;DHT22;19226;51.600;8.034;2023-07-29T05:08:08;20.10;99.90
32877;DHT22;19226;51.600;8.034;2023-07-29T05:10:53;20.20;99.90
32877;DHT22;19226;51.600;8.034;2023-07-29T05:13:38;20.20;99.90
32877;DHT22;19226;51.600;8.034;2023-07-29T05:16:23;20.20;99.90
32877;DHT22;19226;51.600;8.034;2023-07-29T05:19:07;20.20;99.90
32877;DHT22;19226;51.600;8.034;2023-07-29T05:21:52;20.20;99.90
32877;DHT22;19226;51.600;8.034;2023-07-29T05:24:36;20.20;99.90
32877;DHT22;19226;51.600;8.034;2023-07-29T05:27:21;20.20;99.90
32877;DHT22;19226;51.600;8.034;2023-07-29T05:30:06;20.30;99.90
32877;DHT22;19226;51.600;8.034;2023-07-29T05:32:51;20.30;99.90
32877;DHT22;19226;51.600;8.034;2023-07-29T05:35:36;20.30;99.90
32877;DHT22;19226;51.600;8.034;2023-07-29T05:38:21;20.30;99.90
32877;DHT22;19226;51.600;8.034;2023-07-29T05:41:06;20.40;99.90
32877;DHT22;19226;51.600;8.034;2023-07-29T05:43:51;20.40;99.90
32877;DHT22;19226;51.600;8.034;2023-07-29T05:46:36;20.40;99.90
32877;DHT22;19226;51.600;8.034;2023-07-29T05:49:20;20.40;99.90
32877;DHT22;19226;51.600;8.034;2023-07-29T05:52:05;20.40;99.90
32877;DHT22;19226;51.600;8.034;2023-07-29T05:54:50;20.50;99.90
32877;DHT22;19226;51.600;8.034;2023-07-29T05:57:35;20.50;99.90
32877;DHT22;19226;51.600;8.034;2023-07-29T06:00:19;20.50;99.90
32877;DHT22;19226;51.600;8.034;2023-07-29T06:03:03;20.60;99.90
32877;DHT22;19226;51.600;8.034;2023-07-29T06:05:49;20.60;99.90
32877;DHT22;19226;51.600;8.034;2023-07-29T06:08:33;20.50;99.90
32877;DHT22;19226;51.600;8.034;2023-07-29T06:11:18;20.60;99.90
32877;DHT22;19226;51.600;8.034;2023-07-29T06:14:03;20.60;99.90
32877;DHT22;19226;51.600;8.034;2023-07-29T06:16:47;20.60;99.90
32877;DHT22;19226;51.600;8.034;2023-07-29T06:19:32;20.60;99.90
32877;DHT22;19226;51.600;8.034;2023-07-29T06:22:16;20.60;99.90
32877;DHT22;19226;51.600;8.034;2023-07-29T06:25:01;20.70;99.90
32877;DHT22;19226;51.600;8.034;2023-07-29T06:27:45;20.70;99.90
32877;DHT22;19226;51.600;8.034;2023-07-29T06:30:30;20.70;99.90
32877;DHT22;19226;51.600;8.034;2023-07-29T06:33:14;20.70;99.90
32877;DHT22;19226;51.600;8.034;2023-07-29T06:35:59;20.70;99.90
32877;DHT22;19226;51.600;8.034;2023-07-29T06:38:44;20.80;99.90
32877;DHT22;19226;51.600;8.034;2023-07-29T06:41:28;20.80;99.90
32877;DHT22;19226;51.600;8.034;2023-07-29T06:44:13;20.80;99.90
32877;DHT22;19226;51.600;8.034;2023-07-29T06:46:58;20.80;99.90
32877;DHT22;19226;51.600;8.034;2023-07-29T06:49:42;20.80;99.90
32877;DHT22;19226;51.600;8.034;2023-07-29T06:52:27;20.80;99.90
32877;DHT22;19226;51.600;8.034;2023-07-29T06:55:12;20.70;99.90
32877;DHT22;19226;51.600;8.034;2023-07-29T06:57:57;20.70;99.90
32877;DHT22;19226;51.600;8.034;2023-07-29T07:00:41;20.80;99.90
32877;DHT22;19226;51.600;8.034;2023-07-29T07:03:26;20.80;99.90
32877;DHT22;19226;51.600;8.034;2023-07-29T07:06:10;20.90;99.90
32877;DHT22;19226;51.600;8.034;2023-07-29T07:08:55;20.90;99.90
32877;DHT22;19226;51.600;8.034;2023-07-29T07:11:39;20.90;99.90
32877;DHT22;19226;51.600;8.034;2023-07-29T07:14:24;20.80;99.90
32877;DHT22;19226;51.600;8.034;2023-07-29T07:17:08;20.90;99.90
32877;DHT22;19226;51.600;8.034;2023-07-29T07:19:53;20.90;99.90
32877;DHT22;19226;51.600;8.034;2023-07-29T07:22:38;20.80;99.90
32877;DHT22;19226;51.600;8.034;2023-07-29T07:25:23;20.80;99.90
32877;DHT22;19226;51.600;8.034;2023-07-29T07:28:09;20.90;99.90
32877;DHT22;19226;51.600;8.034;2023-07-29T07:30:53;20.90;99.90
32877;DHT22;19226;51.600;8.034;2023-07-29T07:33:39;21.00;99.90
32877;DHT22;19226;51.600;8.034;2023-07-29T07:36:24;21.00;99.90
32877;DHT22;19226;51.600;8.034;2023-07-29T07:39:08;21.10;99.90
32877;DHT22;19226;51.600;8.034;2023-07-29T07:41:53;21.10;99.90
32877;DHT22;19226;51.600;8.034;2023-07-29T07:44:38;21.10;99.90
32877;DHT22;19226;51.600;8.034;2023-07-29T07:47:23;21.00;99.90
32877;DHT22;19226;51.600;8.034;2023-07-29T07:50:07;21.10;99.90
32877;DHT22;19226;51.600;8.034;2023-07-29T07:52:52;21.10;99.90
32877;DHT22;19226;51.600;8.034;2023-07-29T07:55:40;21.10;99.90
32877;DHT22;19226;51.600;8.034;2023-07-29T07:58:24;21.20;99.90
32877;DHT22;19226;51.600;8.034;2023-07-29T08:01:09;21.30;99.90
32877;DHT22;19226;51.600;8.034;2023-07-29T08:03:54;21.40;99.90
32877;DHT22;19226;51.600;8.034;2023-07-29T08:06:38;21.40;99.90
32877;DHT22;19226;51.600;8.034;2023-07-29T08:09:23;21.60;99.90
32877;DHT22;19226;51.600;8.034;2023-07-29T08:12:07;21.50;99.90
32877;DHT22;19226;51.600;8.034;2023-07-29T08:14:52;21.50;99.90
32877;DHT22;19226;51.600;8.034;2023-07-29T08:17:37;21.50;99.90
32877;DHT22;19226;51.600;8.034;2023-07-29T08:20:22;21.60;99.90
32877;DHT22;19226;51.600;8.034;2023-07-29T08:23:07;21.60;99.90
32877;DHT22;19226;51.600;8.034;2023-07-29T08:25:59;21.80;99.90
32877;DHT22;19226;51.600;8.034;2023-07-29T08:28:48;21.90;99.90
32877;DHT22;19226;51.600;8.034;2023-07-29T08:31:32;22.00;99.90
32877;DHT22;19226;51.600;8.034;2023-07-29T08:34:18;22.10;99.90
32877;DHT22;19226;51.600;8.034;2023-07-29T08:37:02;22.10;99.90
32877;DHT22;19226;51.600;8.034;2023-07-29T08:39:47;22.30;99.90
32877;DHT22;19226;51.600;8.034;2023-07-29T08:42:32;22.40;99.90
32877;DHT22;19226;51.600;8.034;2023-07-29T08:45:18;22.40;99.90
32877;DHT22;19226;51.600;8.034;2023-07-29T08:48:10;22.50;99.90
32877;DHT22;19226;51.600;8.034;2023-07-29T08:50:55;22.70;99.90
32877;DHT22;19226;51.600;8.034;2023-07-29T08:53:40;22.90;99.90
32877;DHT22;19226;51.600;8.034;2023-07-29T08:56:25;23.00;99.90
32877;DHT22;19226;51.600;8.034;2023-07-29T08:59:10;23.20;99.90
32877;DHT22;19226;51.600;8.034;2023-07-29T09:01:56;23.40;99.90
32877;DHT22;19226;51.600;8.034;2023-07-29T09:04:42;23.50;99.90
32877;DHT22;19226;51.600;8.034;2023-07-29T09:07:27;23.60;99.90
32877;DHT22;19226;51.600;8.034;2023-07-29T09:10:13;23.70;99.90
32877;DHT22;19226;51.600;8.034;2023-07-29T09:12:58;23.80;99.90
32877;DHT22;19226;51.600;8.034;2023-07-29T09:15:42;23.80;99.90
32877;DHT22;19226;51.600;8.034;2023-07-29T09:18:27;23.80;99.90
32877;DHT22;19226;51.600;8.034;2023-07-29T09:21:15;23.90;99.90
32877;DHT22;19226;51.600;8.034;2023-07-29T09:24:03;23.80;99.90
32877;DHT22;19226;51.600;8.034;2023-07-29T09:26:52;23.90;99.90
32877;DHT22;19226;51.600;8.034;2023-07-29T09:29:38;24.00;99.90
32877;DHT22;19226;51.600;8.034;2023-07-29T09:32:24;24.10;99.90
32877;DHT22;19226;51.600;8.034;2023-07-29T09:35:12;24.00;99.90
32877;DHT22;19226;51.600;8.034;2023-07-29T09:37:57;24.00;99.90
32877;DHT22;19226;51.600;8.034;2023-07-29T09:40:42;24.00;99.90
32877;DHT22;19226;51.600;8.034;2023-07-29T09:43:31;24.20;99.90
32877;DHT22;19226;51.600;8.034;2023-07-29T09:46:15;24.30;99.90
32877;DHT22;19226;51.600;8.034;2023-07-29T09:49:02;24.40;99.90
32877;DHT22;19226;51.600;8.034;2023-07-29T09:51:47;24.60;99.90
32877;DHT22;19226;51.600;8.034;2023-07-29T09:54:31;24.50;99.90
32877;DHT22;19226;51.600;8.034;2023-07-29T09:57:18;24.50;99.90
32877;DHT22;19226;51.600;8.034;2023-07-29T10:00:03;24.50;99.90
32877;DHT22;19226;51.600;8.034;2023-07-29T10:02:51;24.60;99.90
32877;DHT22;19226;51.600;8.034;2023-07-29T10:05:36;24.70;99.90
32877;DHT22;19226;51.600;8.034;2023-07-29T10:08:22;24.80;99.90
32877;DHT22;19226;51.600;8.034;2023-07-29T10:11:08;24.70;99.90
32877;DHT22;19226;51.600;8.034;2023-07-29T10:13:53;24.70;99.90
32877;DHT22;19226;51.600;8.034;2023-07-29T10:16:40;25.00;99.90
32877;DHT22;19226;51.600;8.034;2023-07-29T10:19:25;25.20;99.90
32877;DHT22;19226;51.600;8.034;2023-07-29T10:22:12;25.40;99.90
32877;DHT22;19226;51.600;8.034;2023-07-29T10:25:08;25.50;99.90
32877;DHT22;19226;51.600;8.034;2023-07-29T10:27:56;25.40;99.90
32877;DHT22;19226;51.600;8.034;2023-07-29T10:30:41;25.30;99.90
32877;DHT22;19226;51.600;8.034;2023-07-29T10:33:27;25.40;99.90
32877;DHT22;19226;51.600;8.034;2023-07-29T10:36:12;25.60;99.90
32877;DHT22;19226;51.600;8.034;2023-07-29T10:38:57;25.70;99.90
32877;DHT22;19226;51.600;8.034;2023-07-29T10:42:01;25.80;99.90
32877;DHT22;19226;51.600;8.034;2023-07-29T10:44:47;25.70;99.90
32877;DHT22;19226;51.600;8.034;2023-07-29T10:47:38;25.70;99.90
32877;DHT22;19226;51.600;8.034;2023-07-29T10:50:23;25.70;99.90
32877;DHT22;19226;51.600;8.034;2023-07-29T10:53:07;25.80;99.90
32877;DHT22;19226;51.600;8.034;2023-07-29T10:55:52;25.80;99.90
32877;DHT22;19226;51.600;8.034;2023-07-29T10:58:36;25.80;99.90
32877;DHT22;19226;51.600;8.034;2023-07-29T11:01:29;25.70;99.90
32877;DHT22;19226;51.600;8.034;2023-07-29T11:12:48;25.90;99.90
32877;DHT22;19226;51.600;8.034;2023-07-29T11:15:34;26.00;99.90
32877;DHT22;19226;51.600;8.034;2023-07-29T11:18:20;26.10;99.90
32877;DHT22;19226;51.600;8.034;2023-07-29T11:21:05;26.20;99.90
32877;DHT22;19226;51.600;8.034;2023-07-29T11:23:53;26.20;99.90
32877;DHT22;19226;51.600;8.034;2023-07-29T11:26:37;26.20;99.90
32877;DHT22;19226;51.600;8.034;2023-07-29T11:29:30;26.30;99.90
32877;DHT22;19226;51.600;8.034;2023-07-29T11:32:16;26.20;99.90
32877;DHT22;19226;51.600;8.034;2023-07-29T11:37:50;26.30;99.90
32877;DHT22;19226;51.600;8.034;2023-07-29T11:40:35;26.40;99.90
32877;DHT22;19226;51.600;8.034;2023-07-29T11:43:20;26.50;99.90
32877;DHT22;19226;51.600;8.034;2023-07-29T11:46:04;26.50;99.90
32877;DHT22;19226;51.600;8.034;2023-07-29T11:48:49;26.50;99.90
32877;DHT22;19226;51.600;8.034;2023-07-29T11:51:34;26.30;99.90
32877;DHT22;19226;51.600;8.034;2023-07-29T11:54:19;26.30;99.90
32877;DHT22;19226;51.600;8.034;2023-07-29T11:57:09;26.40;99.90
32877;DHT22;19226;51.600;8.034;2023-07-29T11:59:53;26.40;99.90
32877;DHT22;19226;51.600;8.034;2023-07-29T12:02:39;26.50;99.90
32877;DHT22;19226;51.600;8.034;2023-07-29T12:05:25;26.50;99.90
32877;DHT22;19226;51.600;8.034;2023-07-29T12:08:10;26.60;99.90
32877;DHT22;19226;51.600;8.034;2023-07-29T12:10:55;26.70;99.90
32877;DHT22;19226;51.600;8.034;2023-07-29T12:13:41;26.70;99.90
32877;DHT22;19226;51.600;8.034;2023-07-29T12:16:26;26.60;99.90
32877;DHT22;19226;51.600;8.034;2023-07-29T12:19:14;26.50;99.90
32877;DHT22;19226;51.600;8.034;2023-07-29T12:21:59;26.50;99.90
32877;DHT22;19226;51.600;8.034;2023-07-29T12:24:44;26.30;99.90
32877;DHT22;19226;51.600;8.034;2023-07-29T12:27:30;26.20;99.90
32877;DHT22;19226;51.600;8.034;2023-07-29T12:30:16;26.10;99.90
32877;DHT22;19226;51.600;8.034;2023-07-29T12:33:04;26.10;99.90
32877;DHT22;19226;51.600;8.034;2023-07-29T12:35:50;26.20;99.90
32877;DHT22;19226;51.600;8.034;2023-07-29T12:38:35;26.00;99.90
32877;DHT22;19226;51.600;8.034;2023-07-29T12:41:20;26.00;99.90
32877;DHT22;19226;51.600;8.034;2023-07-29T12:44:04;26.00;99.90
32877;DHT22;19226;51.600;8.034;2023-07-29T12:46:49;26.00;99.90
32877;DHT22;19226;51.600;8.034;2023-07-29T12:49:36;26.00;99.90
32877;DHT22;19226;51.600;8.034;2023-07-29T12:52:21;26.20;99.90
32877;DHT22;19226;51.600;8.034;2023-07-29T12:55:06;26.20;99.90
32877;DHT22;19226;51.600;8.034;2023-07-29T12:57:53;26.30;99.90
32877;DHT22;19226;51.600;8.034;2023-07-29T13:00:37;26.40;99.90
32877;DHT22;19226;51.600;8.034;2023-07-29T13:03:22;26.50;99.90
32877;DHT22;19226;51.600;8.034;2023-07-29T13:06:09;26.70;99.90
32877;DHT22;19226;51.600;8.034;2023-07-29T13:08:54;26.80;99.90
32877;DHT22;19226;51.600;8.034;2023-07-29T13:11:38;26.80;99.90
32877;DHT22;19226;51.600;8.034;2023-07-29T13:14:23;26.80;99.90
32877;DHT22;19226;51.600;8.034;2023-07-29T13:17:10;26.80;99.90
32877;DHT22;19226;51.600;8.034;2023-07-29T13:19:54;26.70;99.90
32877;DHT22;19226;51.600;8.034;2023-07-29T13:22:41;26.80;99.90
32877;DHT22;19226;51.600;8.034;2023-07-29T13:25:26;26.80;99.90
32877;DHT22;19226;51.600;8.034;2023-07-29T13:28:13;26.80;99.90
32877;DHT22;19226;51.600;8.034;2023-07-29T13:30:58;26.80;99.90
32877;DHT22;19226;51.600;8.034;2023-07-29T13:33:43;26.90;99.90
32877;DHT22;19226;51.600;8.034;2023-07-29T13:36:27;27.00;99.90
32877;DHT22;19226;51.600;8.034;2023-07-29T13:39:12;27.10;99.90
32877;DHT22;19226;51.600;8.034;2023-07-29T13:41:57;27.00;99.90
32877;DHT22;19226;51.600;8.034;2023-07-29T13:44:41;27.00;99.90
32877;DHT22;19226;51.600;8.034;2023-07-29T13:47:26;27.10;99.90
32877;DHT22;19226;51.600;8.034;2023-07-29T13:50:10;27.10;99.90
32877;DHT22;19226;51.600;8.034;2023-07-29T13:52:56;27.20;99.90
32877;DHT22;19226;51.600;8.034;2023-07-29T13:55:40;27.20;99.90
32877;DHT22;19226;51.600;8.034;2023-07-29T13:58:25;27.20;99.90
32877;DHT22;19226;51.600;8.034;2023-07-29T14:01:10;27.20;99.90
32877;DHT22;19226;51.600;8.034;2023-07-29T14:03:55;27.20;99.90
32877;DHT22;19226;51.600;8.034;2023-07-29T14:06:39;27.20;99.90
32877;DHT22;19226;51.600;8.034;2023-07-29T14:09:24;27.20;99.90
32877;DHT22;19226;51.600;8.034;2023-07-29T14:12:09;27.30;99.90
32877;DHT22;19226;51.600;8.034;2023-07-29T14:14:56;27.30;99.90
32877;DHT22;19226;51.600;8.034;2023-07-29T14:17:41;27.20;99.90
32877;DHT22;19226;51.600;8.034;2023-07-29T14:20:25;27.30;99.90
32877;DHT22;19226;51.600;8.034;2023-07-29T14:23:10;27.30;99.90
32877;DHT22;19226;51.600;8.034;2023-07-29T14:25:54;27.40;99.90
32877;DHT22;19226;51.600;8.034;2023-07-29T14:28:39;27.40;99.90
32877;DHT22;19226;51.600;8.034;2023-07-29T14:31:23;27.50;99.90
32877;DHT22;19226;51.600;8.034;2023-07-29T14:34:09;27.40;99.90
32877;DHT22;19226;51.600;8.034;2023-07-29T14:36:54;27.30;99.90
32877;DHT22;19226;51.600;8.034;2023-07-29T14:39:42;27.10;99.90
32877;DHT22;19226;51.600;8.034;2023-07-29T14:42:27;27.00;99.90
32877;DHT22;19226;51.600;8.034;2023-07-29T14:45:12;26.90;99.90
32877;DHT22;19226;51.600;8.034;2023-07-29T14:47:56;26.80;99.90
32877;DHT22;19226;51.600;8.034;2023-07-29T14:50:41;26.60;99.90
32877;DHT22;19226;51.600;8.034;2023-07-29T14:53:27;26.40;99.90
32877;DHT22;19226;51.600;8.034;2023-07-29T14:56:12;26.40;99.90
32877;DHT22;19226;51.600;8.034;2023-07-29T14:58:59;26.20;99.90
32877;DHT22;19226;51.600;8.034;2023-07-29T15:01:44;26.10;99.90
32877;DHT22;19226;51.600;8.034;2023-07-29T15:04:28;25.90;99.90
32877;DHT22;19226;51.600;8.034;2023-07-29T15:07:13;25.80;99.90
32877;DHT22;19226;51.600;8.034;2023-07-29T15:09:57;25.70;99.90
32877;DHT22;19226;51.600;8.034;2023-07-29T15:12:45;25.70;99.90
32877;DHT22;19226;51.600;8.034;2023-07-29T15:15:29;25.60;99.90
32877;DHT22;19226;51.600;8.034;2023-07-29T15:18:14;25.50;99.90
32877;DHT22;19226;51.600;8.034;2023-07-29T15:20:58;25.10;99.90
32877;DHT22;19226;51.600;8.034;2023-07-29T15:23:44;24.50;99.90
32877;DHT22;19226;51.600;8.034;2023-07-29T15:26:28;23.80;99.90
32877;DHT22;19226;51.600;8.034;2023-07-29T15:29:13;23.10;99.90
32877;DHT22;19226;51.600;8.034;2023-07-29T15:31:57;22.80;99.90
32877;DHT22;19226;51.600;8.034;2023-07-29T15:34:42;22.30;99.90
32877;DHT22;19226;51.600;8.034;2023-07-29T15:37:26;21.70;99.90
32877;DHT22;19226;51.600;8.034;2023-07-29T15:40:11;21.50;99.90
32877;DHT22;19226;51.600;8.034;2023-07-29T15:42:56;21.50;99.90
32877;DHT22;19226;51.600;8.034;2023-07-29T15:45:40;21.40;99.90
32877;DHT22;19226;51.600;8.034;2023-07-29T15:48:25;21.50;99.90
32877;DHT22;19226;51.600;8.034;2023-07-29T15:51:09;21.70;99.90
32877;DHT22;19226;51.600;8.034;2023-07-29T15:53:54;22.00;99.90
32877;DHT22;19226;51.600;8.034;2023-07-29T15:56:39;22.30;99.90
32877;DHT22;19226;51.600;8.034;2023-07-29T15:59:24;22.50;99.90
32877;DHT22;19226;51.600;8.034;2023-07-29T16:02:10;22.80;99.90
32877;DHT22;19226;51.600;8.034;2023-07-29T16:04:54;23.00;99.90
32877;DHT22;19226;51.600;8.034;2023-07-29T16:07:39;23.20;99.90
32877;DHT22;19226;51.600;8.034;2023-07-29T16:10:24;23.20;99.90
32877;DHT22;19226;51.600;8.034;2023-07-29T16:13:08;23.20;99.90
32877;DHT22;19226;51.600;8.034;2023-07-29T16:15:53;23.10;99.90
32877;DHT22;19226;51.600;8.034;2023-07-29T16:18:37;23.00;99.90
32877;DHT22;19226;51.600;8.034;2023-07-29T16:21:22;23.00;99.90
32877;DHT22;19226;51.600;8.034;2023-07-29T16:24:07;22.90;99.90
32877;DHT22;19226;51.600;8.034;2023-07-29T16:26:51;22.80;99.90
32877;DHT22;19226;51.600;8.034;2023-07-29T16:29:36;23.00;99.90
32877;DHT22;19226;51.600;8.034;2023-07-29T16:32:20;23.20;99.90
32877;DHT22;19226;51.600;8.034;2023-07-29T16:35:05;23.50;99.90
32877;DHT22;19226;51.600;8.034;2023-07-29T16:37:50;23.80;99.90
32877;DHT22;19226;51.600;8.034;2023-07-29T16:40:34;23.90;99.90
32877;DHT22;19226;51.600;8.034;2023-07-29T16:43:19;23.90;99.90
32877;DHT22;19226;51.600;8.034;2023-07-29T16:46:03;23.80;99.90
32877;DHT22;19226;51.600;8.034;2023-07-29T16:48:48;23.60;99.90
32877;DHT22;19226;51.600;8.034;2023-07-29T16:51:32;23.60;99.90
32877;DHT22;19226;51.600;8.034;2023-07-29T16:54:17;23.60;99.90
32877;DHT22;19226;51.600;8.034;2023-07-29T16:57:03;23.50;99.90
32877;DHT22;19226;51.600;8.034;2023-07-29T16:59:47;23.30;99.90
32877;DHT22;19226;51.600;8.034;2023-07-29T17:02:32;23.30;99.90
32877;DHT22;19226;51.600;8.034;2023-07-29T17:05:17;23.30;99.90
32877;DHT22;19226;51.600;8.034;2023-07-29T17:08:04;23.30;99.90
32877;DHT22;19226;51.600;8.034;2023-07-29T17:10:49;23.30;99.90
32877;DHT22;19226;51.600;8.034;2023-07-29T17:13:33;23.20;99.90
32877;DHT22;19226;51.600;8.034;2023-07-29T17:16:18;23.10;99.90
32877;DHT22;19226;51.600;8.034;2023-07-29T17:19:02;23.00;99.90
32877;DHT22;19226;51.600;8.034;2023-07-29T17:21:47;22.90;99.90
32877;DHT22;19226;51.600;8.034;2023-07-29T17:24:32;23.00;99.90
32877;DHT22;19226;51.600;8.034;2023-07-29T17:27:17;23.00;99.90
32877;DHT22;19226;51.600;8.034;2023-07-29T17:30:01;22.90;99.90
32877;DHT22;19226;51.600;8.034;2023-07-29T17:32:46;22.90;99.90
32877;DHT22;19226;51.600;8.034;2023-07-29T17:35:30;22.90;99.90
32877;DHT22;19226;51.600;8.034;2023-07-29T17:38:15;22.90;99.90
32877;DHT22;19226;51.600;8.034;2023-07-29T17:40:59;22.80;99.90